This is the latest recevied weather packets stored in our database for station/object KF0EZB. If no packets are shown the sender has not sent any weather packets the latest 10 day(s).
| Time | Temp. | Humidity | Pressure | Rain* | Wind** | Luminosity | Snow |
|---|---|---|---|---|---|---|---|
| 1777694554 | 8.33° C | 83% | 1019.6 hPa | 0 mm | - | 0 W/m² | - |
| 1777694250 | 8.33° C | 82% | 1019.5 hPa | 0 mm | - | 0 W/m² | - |
| 1777693947 | 8.33° C | 82% | 1019.6 hPa | 0 mm | - | 0 W/m² | - |
| 1777693644 | 8.33° C | 82% | 1019.2 hPa | 0 mm | - | 0 W/m² | - |
| 1777693342 | 8.33° C | 80% | 1019.4 hPa | 0 mm | - | 0 W/m² | - |
| 1777693040 | 8.89° C | 80% | 1019.4 hPa | 0 mm | - | 0 W/m² | - |
| 1777692738 | 8.89° C | 80% | 1019.4 hPa | 0 mm | - | 0 W/m² | - |
| 1777692434 | 8.89° C | 80% | 1019.2 hPa | 0 mm | - | 0 W/m² | - |
| 1777692130 | 8.89° C | 80% | 1019.2 hPa | 0 mm | - | 0 W/m² | - |
| 1777691828 | 9.44° C | 79% | 1019.1 hPa | 0 mm | - | 0 W/m² | - |
| 1777691526 | 9.44° C | 78% | 1019.1 hPa | 0 mm | - | 0 W/m² | - |
| 1777691225 | 10° C | 77% | 1018.7 hPa | 0 mm | - | 0 W/m² | - |
| 1777690922 | 10° C | 77% | 1018.9 hPa | 0 mm | - | 0 W/m² | - |
| 1777690619 | 10° C | 77% | 1018.6 hPa | 0 mm | - | 0 W/m² | - |
| 1777690317 | 10° C | 76% | 1018.6 hPa | 0 mm | - | 0 W/m² | - |
| 1777690014 | 10.56° C | 75% | 1018.6 hPa | 0 mm | - | 0 W/m² | - |
| 1777689713 | 10.56° C | 75% | 1018.3 hPa | 0 mm | - | 0 W/m² | - |
| 1777689410 | 10.56° C | 75% | 1018.4 hPa | 0 mm | - | 0 W/m² | - |
| 1777689107 | 10.56° C | 74% | 1018.3 hPa | 0 mm | - | 0 W/m² | - |
| 1777688804 | 11.11° C | 74% | 1018.3 hPa | 0 mm | - | 0 W/m² | - |
| 1777688199 | 11.11° C | 73% | 1018.2 hPa | 0 mm | - | 0 W/m² | - |
| 1777673956 | 18.33° C | 34% | 1016.1 hPa | 0 mm | - | 39 W/m² | - |
| 1777673049 | 18.89° C | 35% | 1016.2 hPa | 0 mm | - | 91 W/m² | - |
| 1777671832 | 21.11° C | 31% | 1016.3 hPa | 0 mm | - | 562 W/m² | - |
| 1777671528 | 21.11° C | 30% | 1016.4 hPa | 0 mm | - | 562 W/m² | - |
* Rain latest hour (hover to see other rain measurements)
** Current wind speed in m/s (hover to see current wind gust speed)